Bookmark and Share
Track history (hours):
 

Clipper Saga

Last reported at 2014-Apr-17 21:33 UTC. Time now 2014-Apr-17 21:53 UTC.
Position N 53°54' E 007°52'.

Length 89 m; draft 5.9 m.

Type: Ship (hazmat cat C). MMSI: 246657008.

NotesDate/timePositionNaut miles runAvg speedWind from/ knotsBaromVisibWave heightAir tempDewpointWater temp
2014-Apr-17 21:33N 53°54' E 007°52'0 0.0
2014-Apr-17 20:33N 53°54' E 007°52'0 0.0
2014-Apr-17 19:27N 53°54' E 007°52'0 0.0
2014-Apr-17 18:21N 53°54' E 007°52'2 2.4
2014-Apr-17 17:33N 53°54' E 007°49'1111.3
2014-Apr-17 16:33N 53°54' E 007°30'1211.6
2014-Apr-17 15:33N 53°51' E 007°11'3612.1
2014-Apr-17 12:33N 53°43' E 006°11'1312.8
2014-Apr-17 11:34N 53°39' E 005°51'1313.1
2014-Apr-17 10:33N 53°35' E 005°30'1313.4
2014-Apr-17 09:33N 53°30' E 005°09'1413.6
2014-Apr-17 08:33N 53°25' E 004°47'1613.4
2014-Apr-17 07:23N 53°12' E 004°33'1213.9
2014-Apr-17 06:33N 53°02' E 004°24'1414.2
2014-Apr-17 05:34N 52°49' E 004°13'1414.1
2014-Apr-17 04:34N 52°39' E 003°57'1414.2
2014-Apr-17 03:34N 52°29' E 003°41'1414.3
2014-Apr-17 02:33N 52°18' E 003°25'39 9.6
2014-Apr-16 22:33N 51°46' E 002°51'1313.4
2014-Apr-16 21:34N 51°45' E 003°12'1111.4
2014-Apr-16 20:34N 51°36' E 003°23'1211.6
2014-Apr-16 19:33N 51°27' E 003°34'1313.0
2014-Apr-16 18:33N 51°21' E 003°53'1010.3
2014-Apr-16 17:33N 51°23' E 004°09'9 9.1
2014-Apr-16 16:34N 51°17' E 004°20'1 0.5
2014-Apr-16 15:33N 51°16' E 004°20'1 0.9
2014-Apr-16 14:17N 51°16' E 004°22'0 0.0
2014-Apr-16 13:29N 51°16' E 004°22'0 0.0
2014-Apr-16 12:32N 51°16' E 004°22'0 0.0
2014-Apr-16 11:29N 51°16' E 004°22'0 0.0
2014-Apr-16 09:17N 51°16' E 004°22'0 0.0
2014-Apr-16 08:26N 51°16' E 004°22'0 0.0
2014-Apr-16 07:32N 51°16' E 004°22'0 0.0
2014-Apr-16 06:32N 51°16' E 004°22'0 0.0
2014-Apr-16 05:29N 51°16' E 004°22'0 0.0
2014-Apr-16 04:20N 51°16' E 004°22'0 0.0
2014-Apr-16 03:32N 51°16' E 004°22'0 0.0
2014-Apr-16 02:20N 51°16' E 004°22'0 0.0
2014-Apr-16 01:17N 51°16' E 004°22'0 0.0
2014-Apr-16 00:32N 51°16' E 004°22'0 0.0
2014-Apr-15 23:26N 51°16' E 004°22'0 0.0
2014-Apr-15 22:14N 51°16' E 004°22'0 0.0
2014-Apr-15 21:32N 51°16' E 004°22'0 0.0
2014-Apr-15 19:29N 51°16' E 004°22'0 0.1
2014-Apr-15 18:32N 51°16' E 004°22'0 0.0
2014-Apr-15 17:29N 51°16' E 004°22'0 0.0
2014-Apr-15 16:32N 51°16' E 004°22'0 0.0
2014-Apr-15 15:29N 51°16' E 004°22'0 0.0
2014-Apr-15 14:29N 51°16' E 004°22'0 0.0
2014-Apr-15 12:32N 51°16' E 004°22'0 0.0
2014-Apr-15 10:32N 51°16' E 004°22'0 0.0
2014-Apr-15 09:32N 51°16' E 004°22'0 0.0
2014-Apr-15 08:32N 51°16' E 004°22'0 0.0
2014-Apr-15 07:32N 51°16' E 004°22'0 0.0
2014-Apr-15 06:32N 51°16' E 004°22'0 0.0
2014-Apr-15 05:32N 51°16' E 004°22'0 0.0
2014-Apr-15 03:32N 51°16' E 004°22'0 0.0
2014-Apr-15 02:32N 51°16' E 004°22'0 0.0
2014-Apr-15 01:32N 51°16' E 004°22'0 0.0
2014-Apr-15 00:32N 51°16' E 004°22'0 0.0
2014-Apr-14 23:32N 51°16' E 004°22'0 0.0
2014-Apr-14 22:32N 51°16' E 004°22'0 0.3
2014-Apr-14 21:34N 51°16' E 004°21'6 5.6
2014-Apr-14 20:33N 51°21' E 004°17'1 1.3
2014-Apr-14 19:34N 51°21' E 004°15'7 7.3
2014-Apr-14 18:34N 51°22' E 004°04'4 4.4
2014-Apr-14 17:34N 51°23' E 003°57'7 7.3
2014-Apr-14 16:34N 51°22' E 003°45'7 7.1
2014-Apr-14 15:34N 51°26' E 003°36'8 8.2
2014-Apr-14 14:34N 51°31' E 003°26'10 9.5
2014-Apr-14 13:31N 51°40' E 003°19'179 9.0
2014-Apr-13 17:33N 54°25' E 005°12'200 9.0
2014-Apr-12 19:24N 57°16' E 008°19'64 8.2
2014-Apr-12 11:33N 57°47' E 010°03'10 9.6
2014-Apr-12 10:34N 57°49' E 010°21'1010.0
2014-Apr-12 09:33N 57°50' E 010°39'1010.2
2014-Apr-12 08:33N 57°51' E 010°59'1010.2
2014-Apr-12 07:33N 57°51' E 011°18'9 9.3
2014-Apr-12 06:34N 57°55' E 011°34'1010.0
2014-Apr-12 05:33N 58°02' E 011°47'4 0.2
2014-Apr-11 09:31N 58°05' E 011°48'1111.2
2014-Apr-11 08:34N 57°56' E 011°40'10 9.6
2014-Apr-11 07:33N 57°51' E 011°24'4 3.9
2014-Apr-11 06:33N 57°51' E 011°17'8 7.7
2014-Apr-11 05:33N 57°51' E 011°03'1010.4
2014-Apr-11 04:33N 57°50' E 010°43'9 9.3
2014-Apr-11 03:33N 57°49' E 010°26'10 9.5
2014-Apr-11 02:33N 57°48' E 010°08'7510.3
2014-Apr-10 19:18N 57°06' E 008°13'3912.6
2014-Apr-10 16:12N 56°33' E 007°34'19812.6
2014-Apr-10 00:33N 53°39' E 004°51'1313.0
2014-Apr-09 23:33N 53°27' E 004°44'1813.2
2014-Apr-09 22:13N 53°11' E 004°32'912.8
2014-Apr-09 21:33N 53°03' E 004°26'1212.4
2014-Apr-09 20:33N 52°53' E 004°15'1212.1
2014-Apr-09 19:33N 52°43' E 004°03'1212.0
2014-Apr-09 18:33N 52°34' E 003°50'1411.8
2014-Apr-09 17:23N 52°24' E 003°35'1011.6
2014-Apr-09 16:33N 52°15' E 003°29'1211.6
2014-Apr-09 15:32N 52°03' E 003°24'1212.0
2014-Apr-09 14:32N 51°52' E 003°22'1010.5
2014-Apr-09 13:33N 51°41' E 003°18'1312.6
2014-Apr-09 12:33N 51°30' E 003°28'1212.6
2014-Apr-09 11:33N 51°23' E 003°44'1110.8
2014-Apr-09 10:33N 51°26' E 003°60'9 9.1
2014-Apr-09 09:33N 51°22' E 004°13'7 7.2
2014-Apr-09 08:34N 51°17' E 004°20'0 0.3
2014-Apr-09 07:33N 51°17' E 004°20'0 0.0
2014-Apr-09 05:30N 51°17' E 004°20'0 0.0
2014-Apr-09 04:30N 51°17' E 004°20'0 0.0
2014-Apr-09 03:33N 51°17' E 004°20'0 0.0
2014-Apr-09 02:27N 51°17' E 004°20'0 0.0
2014-Apr-09 01:33N 51°17' E 004°20'0 0.0
2014-Apr-09 00:30N 51°17' E 004°20'0 0.0
2014-Apr-08 23:30N 51°17' E 004°20'0 0.0
2014-Apr-08 22:24N 51°17' E 004°20'0 0.0
2014-Apr-08 21:30N 51°17' E 004°20'0 0.0
2014-Apr-08 20:30N 51°17' E 004°20'0 0.0
2014-Apr-08 19:30N 51°17' E 004°20'0 0.0
2014-Apr-08 18:30N 51°17' E 004°20'0 0.0
2014-Apr-08 17:15N 51°17' E 004°20'0 0.0
2014-Apr-08 16:33N 51°17' E 004°20'0 0.0
2014-Apr-08 15:30N 51°17' E 004°20'0 0.0
2014-Apr-08 14:30N 51°17' E 004°20'0 0.1
2014-Apr-08 13:27N 51°17' E 004°20'0 0.0
2014-Apr-08 11:33N 51°17' E 004°20'0 0.0
2014-Apr-08 10:21N 51°17' E 004°20'0 0.0
2014-Apr-08 09:26N 51°17' E 004°20'0 0.3
2014-Apr-08 08:33N 51°17' E 004°20'0 0.0
2014-Apr-08 07:33N 51°17' E 004°20'0 0.0
2014-Apr-08 06:34N 51°17' E 004°20'8 8.3
2014-Apr-08 05:33N 51°24' E 004°13'9 9.2
2014-Apr-08 04:34N 51°25' E 003°58'10 9.9
2014-Apr-08 03:33N 51°23' E 003°43'9 9.4
2014-Apr-08 02:33N 51°28' E 003°30'1110.9
2014-Apr-08 01:32N 51°38' E 003°21'9 8.8
2014-Apr-08 00:31N 51°46' E 003°14'  

Dump ship's entire track history

sailing weather and tide predictions

Clipper Saga — LAFY6 — position and weather